Autryville, North Carolina
Current Conditions -  °F | °C
As of 11:53 AM on Thursday 27 Nov 2014 (Local Time) from KFAY Reporting Station
Scattered Clouds Scattered Clouds  
Wind Chill: 52°   Ceiling: Unl
Heat Index: 52°   Visibility: 10mi
Dew Point: 39°   Wind: 9mph
Humidity: 61%   Direction: 270°W
Pressure: 30.02"   Gusts: 20mph
Location:  35°N, 78.64°W
Report Text: KFAY 271653Z AUTO 27008G17KT 10SM SCT030 11/04 A3002 RMK AO2 SLP160 T01110039
Loading
Personal Weather Stations






























Interactive Weather Map New forecast layout! Learn more

10-Day Weather Forecast

Advertisements
Track Severe Weather on mobile